Time;durP1;ratioP1;P1;durP2;ratioP2;P2;SDS_P1;SDS_P2;PMS_P1;PMS_P2;Temp;Humidity;BMP_temperature;BMP_pressure;BME280_temperature;BME280_humidity;BME280_pressure;Samples;Min_cycle;Max_cycle;Signal;HPM_P1;HPM_P2
2022/08/03 00:00:32;;;;;;;10.70;9.30;;;;;;;17.51;74.41;98183.98;108221;1290;22540;-87
2022/08/03 00:03:03;;;;;;;9.40;8.60;;;;;;;17.04;74.83;98184.36;108213;1288;22452;-87
2022/08/03 00:05:34;;;;;;;10.20;8.70;;;;;;;16.76;75.51;98185.52;108210;1288;22560;-88
2022/08/03 00:08:02;;;;;;;10.00;8.70;;;;;;;16.54;75.84;98183.98;108241;1288;22304;-88
2022/08/03 00:10:31;;;;;;;9.70;8.80;;;;;;;16.31;76.87;98187.86;108240;1288;23177;-88
2022/08/03 00:12:59;;;;;;;9.20;8.40;;;;;;;16.18;77.14;98187.22;108330;1288;22385;-87
2022/08/03 00:15:27;;;;;;;9.60;8.50;;;;;;;16.20;77.69;98189.73;108364;1288;22260;-87
2022/08/03 00:17:55;;;;;;;9.30;8.40;;;;;;;16.28;77.06;98188.35;108276;1288;22979;-87
2022/08/03 00:20:24;;;;;;;9.30;8.40;;;;;;;16.23;77.46;98187.97;108252;1288;22290;-85
2022/08/03 00:22:51;;;;;;;10.00;8.50;;;;;;;16.05;77.53;98185.63;107974;1288;23089;-88
2022/08/03 00:25:19;;;;;;;10.80;9.60;;;;;;;15.82;78.51;98185.29;108302;1288;23053;-87
2022/08/03 00:27:47;;;;;;;10.10;9.20;;;;;;;15.58;78.98;98182.52;108555;1288;22319;-84
2022/08/03 00:30:17;;;;;;;10.00;9.10;;;;;;;15.42;79.65;98180.79;108587;1288;23192;-86
2022/08/03 00:32:46;;;;;;;10.80;9.00;;;;;;;15.36;79.71;98181.34;108572;1288;22229;-84
2022/08/03 00:35:14;;;;;;;10.30;8.80;;;;;;;15.28;80.28;98186.16;108603;1288;22334;-86
2022/08/03 00:38:03;;;;;;;10.70;9.80;;;;;;;15.32;80.43;98183.60;108600;1287;22531;-87
2022/08/03 00:40:31;;;;;;;10.60;9.50;;;;;;;15.28;80.32;98184.45;108582;1288;22349;-86
2022/08/03 00:43:05;;;;;;;11.50;10.10;;;;;;;15.15;81.29;98181.44;108465;1288;22320;-86
2022/08/03 00:45:36;;;;;;;12.10;10.90;;;;;;;14.95;81.44;98186.13;108430;1288;22301;-84
2022/08/03 00:48:06;;;;;;;11.50;10.50;;;;;;;14.84;82.30;98185.09;108468;1288;22418;-85
2022/08/03 00:50:54;;;;;;;11.50;10.30;;;;;;;14.79;82.87;98184.08;108328;1288;22292;-86
2022/08/03 00:53:21;;;;;;;12.50;10.30;;;;;;;14.69;83.47;98189.38;108597;1288;22357;-85
2022/08/03 00:55:50;;;;;;;11.40;10.40;;;;;;;14.61;84.21;98183.98;108577;1288;22294;-85
2022/08/03 00:58:18;;;;;;;12.00;10.90;;;;;;;14.53;84.61;98183.16;108597;1288;22421;-87
2022/08/03 01:00:46;;;;;;;11.40;10.30;;;;;;;14.47;84.08;98183.02;108565;1288;22332;-87
2022/08/03 01:03:14;;;;;;;12.00;10.60;;;;;;;14.49;84.11;98186.62;108469;1288;22408;-85
2022/08/03 01:06:01;;;;;;;11.90;10.70;;;;;;;14.47;85.17;98187.51;108577;1288;22253;-86
2022/08/03 01:08:42;;;;;;;11.00;9.80;;;;;;;14.51;85.64;98185.45;108394;1288;22275;-87
2022/08/03 01:11:51;;;;;;;11.20;10.10;;;;;;;14.49;85.55;98184.67;108301;1288;23265;-88
2022/08/03 01:14:57;;;;;;;13.80;10.20;;;;;;;14.66;85.59;98188.84;108274;1288;22312;-87
2022/08/03 01:17:33;;;;;;;11.10;10.10;;;;;;;14.66;85.54;98191.52;108199;1288;22409;-87
2022/08/03 01:20:12;;;;;;;27.20;12.40;;;;;;;14.66;86.04;98186.47;108013;1288;22466;-88
2022/08/03 01:22:58;;;;;;;11.80;10.80;;;;;;;14.59;86.14;98186.97;108404;1288;22278;-87
2022/08/03 01:25:39;;;;;;;13.60;11.10;;;;;;;14.48;86.32;98192.69;108269;1287;22276;-87
2022/08/03 01:28:25;;;;;;;12.10;10.80;;;;;;;14.41;86.25;98187.92;108291;1288;22208;-88
2022/08/03 01:30:57;;;;;;;11.90;10.70;;;;;;;14.35;87.14;98188.66;108097;1288;22387;-87
2022/08/03 01:33:36;;;;;;;11.90;10.80;;;;;;;14.30;87.26;98191.21;108191;1288;23039;-88
2022/08/03 01:36:08;;;;;;;11.00;9.90;;;;;;;14.25;87.81;98190.27;108301;1287;22413;-88
2022/08/03 01:38:42;;;;;;;11.60;9.60;;;;;;;14.24;88.19;98188.52;108284;1288;23019;-88
2022/08/03 01:41:36;;;;;;;;;;;;;;;14.36;88.22;98184.48;108260;1287;22504;-86
2022/08/03 01:44:08;;;;;;;10.90;9.90;;;;;;;14.44;87.98;98185.59;108238;1288;22341;-87
2022/08/03 01:46:59;;;;;;;11.90;10.70;;;;;;;14.49;88.01;98185.96;108238;1288;23131;-87
2022/08/03 01:49:30;;;;;;;12.00;10.80;;;;;;;14.49;88.28;98187.44;108231;1287;22277;-86
2022/08/03 01:51:59;;;;;;;11.00;9.90;;;;;;;14.48;88.24;98184.44;108218;1288;23071;-85
2022/08/03 01:54:41;;;;;;;11.80;10.60;;;;;;;14.51;88.41;98184.58;108027;1288;241801;-87
2022/08/03 01:57:10;;;;;;;14.70;12.70;;;;;;;14.61;88.13;98179.73;108215;1287;22303;-87
2022/08/03 01:59:40;;;;;;;13.30;11.90;;;;;;;14.63;88.14;98183.44;108029;1288;23122;-87
2022/08/03 02:02:12;;;;;;;13.20;11.90;;;;;;;14.63;88.27;98180.95;108248;1288;23102;-87
2022/08/03 02:05:00;;;;;;;13.30;12.00;;;;;;;14.52;89.02;98182.27;108010;1288;22418;-86
2022/08/03 02:07:29;;;;;;;12.10;10.90;;;;;;;14.45;89.19;98178.05;108249;1288;23132;-87
2022/08/03 02:09:59;;;;;;;10.90;9.80;;;;;;;14.54;89.23;98173.81;108128;1288;22518;-87
2022/08/03 02:12:30;;;;;;;12.40;10.80;;;;;;;14.72;89.61;98171.15;108228;1288;23234;-87
2022/08/03 02:15:00;;;;;;;12.80;11.70;;;;;;;15.01;89.02;98177.15;108219;1288;23070;-87
2022/08/03 02:17:29;;;;;;;14.00;12.30;;;;;;;15.01;89.12;98182.02;108150;1288;22286;-87
2022/08/03 02:20:12;;;;;;;12.80;11.60;;;;;;;14.86;89.12;98176.37;108072;1288;22432;-87
2022/08/03 02:22:42;;;;;;;12.60;11.50;;;;;;;14.75;89.25;98175.89;108248;1288;22258;-87
2022/08/03 02:25:11;;;;;;;12.50;11.40;;;;;;;14.72;89.53;98178.37;108223;1288;22236;-87
2022/08/03 02:27:51;;;;;;;14.50;13.10;;;;;;;14.68;89.65;98182.68;108238;1288;22250;-88
2022/08/03 02:30:22;;;;;;;14.80;13.20;;;;;;;14.58;89.72;98179.44;108227;1287;22360;-87
2022/08/03 02:32:56;;;;;;;12.50;11.30;;;;;;;14.53;89.96;98177.04;108217;1287;23066;-88
2022/08/03 02:35:28;;;;;;;13.00;11.90;;;;;;;14.51;89.98;98178.61;108218;1288;23149;-88
2022/08/03 02:38:01;;;;;;;14.50;12.10;;;;;;;14.52;90.27;98181.02;108147;1288;23051;-88
2022/08/03 02:40:31;;;;;;;12.50;11.20;;;;;;;14.65;90.54;98177.98;108244;1288;22240;-88
2022/08/03 02:43:06;;;;;;;12.80;11.60;;;;;;;14.67;90.42;98174.52;108141;1288;22299;-86
2022/08/03 02:45:41;;;;;;;12.80;11.70;;;;;;;14.62;90.04;98174.56;108242;1288;22965;-87
2022/08/03 02:48:17;;;;;;;13.70;12.40;;;;;;;14.54;90.98;98171.17;108119;1290;22342;-87
2022/08/03 02:50:47;;;;;;;13.30;12.00;;;;;;;14.43;90.97;98171.42;108163;1289;22975;-87
2022/08/03 02:53:16;;;;;;;14.50;13.00;;;;;;;14.36;91.08;98170.16;108149;1289;22279;-87
2022/08/03 02:55:46;;;;;;;12.40;11.40;;;;;;;14.34;91.48;98171.63;108152;1289;22394;-87
2022/08/03 02:58:18;;;;;;;11.90;10.90;;;;;;;14.37;91.79;98173.23;108140;1289;22882;-86
2022/08/03 03:00:47;;;;;;;13.70;12.30;;;;;;;14.43;92.01;98172.45;108151;1289;22827;-88
2022/08/03 03:03:15;;;;;;;13.40;11.80;;;;;;;14.39;92.34;98173.33;108136;1290;22370;-86
2022/08/03 03:05:48;;;;;;;14.00;11.50;;;;;;;14.30;92.26;98177.27;108136;1289;22392;-88
2022/08/03 03:08:25;;;;;;;12.90;11.70;;;;;;;14.22;92.10;98178.59;108129;1287;23052;-86
2022/08/03 03:10:59;;;;;;;11.30;10.30;;;;;;;14.33;92.34;98178.33;108025;1289;22444;-87
2022/08/03 03:13:29;;;;;;;13.00;11.80;;;;;;;14.39;92.31;98180.54;108121;1289;22381;-87
2022/08/03 03:16:01;;;;;;;12.60;11.10;;;;;;;14.40;92.15;98183.11;107876;1289;22534;-87
2022/08/03 03:18:32;;;;;;;12.30;11.20;;;;;;;14.45;92.39;98179.65;108115;1289;22307;-86
2022/08/03 03:21:02;;;;;;;13.70;12.50;;;;;;;14.48;91.98;98181.89;108147;1289;22270;-87
2022/08/03 03:23:32;;;;;;;12.90;11.70;;;;;;;14.38;91.97;98183.00;108120;1289;22985;-87
2022/08/03 03:26:01;;;;;;;13.60;12.30;;;;;;;14.44;92.35;98185.05;108143;1289;22359;-88
2022/08/03 03:28:30;;;;;;;13.40;12.10;;;;;;;14.55;92.18;98186.59;107632;1290;22310;-86
2022/08/03 03:30:59;;;;;;;13.50;12.30;;;;;;;14.65;92.27;98184.49;108126;1289;22995;-87
2022/08/03 03:33:27;;;;;;;12.50;11.40;;;;;;;14.85;92.24;98186.86;108124;1290;23097;-87
2022/08/03 03:35:57;;;;;;;12.00;11.00;;;;;;;14.99;91.80;98188.95;108143;1289;22480;-87
2022/08/03 03:38:25;;;;;;;12.20;11.10;;;;;;;15.00;91.51;98184.33;108160;1290;22287;-85
2022/08/03 03:40:53;;;;;;;12.50;11.50;;;;;;;15.05;91.95;98189.02;108249;1289;22259;-86
2022/08/03 03:43:22;;;;;;;13.30;12.10;;;;;;;15.19;91.98;98185.79;108165;1289;23074;-86
2022/08/03 03:45:52;;;;;;;12.00;11.00;;;;;;;15.35;91.54;98188.41;108125;1288;22412;-87
2022/08/03 03:48:20;;;;;;;15.20;13.70;;;;;;;15.26;90.95;98187.72;108186;1288;22886;-87
2022/08/03 03:50:49;;;;;;;11.70;10.40;;;;;;;15.17;91.44;98187.95;108213;1288;22343;-87
2022/08/03 03:53:17;;;;;;;13.20;11.90;;;;;;;15.26;92.06;98187.68;108208;1287;22290;-87
2022/08/03 03:55:45;;;;;;;12.40;11.30;;;;;;;15.29;91.14;98188.38;108027;1288;23115;-86
2022/08/03 03:58:31;;;;;;;13.20;12.00;;;;;;;15.17;91.33;98181.81;108123;1289;22875;-87
2022/08/03 04:00:59;;;;;;;14.70;13.50;;;;;;;15.10;91.91;98191.23;108224;1287;23102;-84
2022/08/03 04:03:28;;;;;;;14.50;13.10;;;;;;;15.15;92.07;98188.56;108121;1288;23094;-85
2022/08/03 04:11:50;;;;;;;13.10;12.00;;;;;;;15.51;91.74;98195.68;107474;1288;22559;-85
2022/08/03 04:14:32;;;;;;;14.10;12.90;;;;;;;15.61;92.14;98196.33;108204;1287;22481;-84
2022/08/03 04:17:04;;;;;;;24.20;21.90;;;;;;;15.77;91.50;98195.38;108128;1288;22369;-84
2022/08/03 04:19:37;;;;;;;15.40;13.00;;;;;;;15.76;90.78;98198.83;108202;1287;22477;-84
2022/08/03 04:22:09;;;;;;;13.60;12.40;;;;;;;15.76;90.76;98205.19;108226;1288;22416;-84
2022/08/03 04:24:46;;;;;;;14.70;13.40;;;;;;;15.74;91.00;98209.22;108207;1287;22290;-85
2022/08/03 04:27:17;;;;;;;17.80;15.80;;;;;;;15.74;91.06;98209.86;108239;1287;22844;-85
2022/08/03 04:29:48;;;;;;;14.30;12.90;;;;;;;15.77;91.29;98214.48;108229;1287;23170;-85
2022/08/03 04:32:16;;;;;;;15.90;14.50;;;;;;;15.98;93.76;98212.84;108221;1288;23205;-84
2022/08/03 04:34:46;;;;;;;14.40;13.00;;;;;;;16.50;96.95;98215.92;108229;1287;22408;-84
2022/08/03 04:37:22;;;;;;;14.10;12.70;;;;;;;17.17;96.62;98218.05;108216;1287;23089;-83
2022/08/03 04:39:53;;;;;;;14.30;13.00;;;;;;;17.71;93.50;98225.53;108122;1288;22302;-84
2022/08/03 04:42:25;;;;;;;14.10;12.80;;;;;;;17.75;90.56;98227.86;108216;1287;22934;-84
2022/08/03 04:44:55;;;;;;;12.90;11.70;;;;;;;17.60;90.05;98226.86;108243;1288;22266;-84
2022/08/03 04:47:31;;;;;;;7.90;7.10;;;;;;;17.80;92.14;98230.67;108207;1286;22274;-83
2022/08/03 04:50:01;;;;;;;13.40;11.20;;;;;;;18.18;91.91;98233.66;107958;1288;22258;-83
2022/08/03 04:52:30;;;;;;;15.00;13.20;;;;;;;18.59;90.49;98231.14;108130;1288;22408;-84
2022/08/03 04:54:58;;;;;;;13.70;11.90;;;;;;;18.72;89.68;98236.91;108230;1287;22972;-84
2022/08/03 04:57:26;;;;;;;15.20;13.10;;;;;;;18.71;89.17;98236.95;108236;1288;22276;-84
2022/08/03 04:59:55;;;;;;;17.00;13.70;;;;;;;18.60;88.42;98236.94;108240;1287;22271;-84
2022/08/03 05:02:30;;;;;;;14.80;13.30;;;;;;;18.39;88.41;98234.50;108224;1287;22368;-84
2022/08/03 05:04:59;;;;;;;15.30;13.80;;;;;;;18.21;88.90;98236.86;108212;1288;22479;-84
2022/08/03 05:07:27;;;;;;;17.20;13.30;;;;;;;18.12;89.17;98237.84;108261;1288;22986;-84
2022/08/03 05:10:08;;;;;;;13.50;11.10;;;;;;;18.06;89.48;98238.04;108239;1288;23008;-84
2022/08/03 05:12:46;;;;;;;14.50;12.50;;;;;;;18.29;92.38;98242.21;107989;1288;22463;-84
2022/08/03 05:15:14;;;;;;;14.10;12.70;;;;;;;18.84;92.34;98241.09;108236;1287;22301;-84
2022/08/03 05:17:42;;;;;;;16.90;14.20;;;;;;;19.14;90.00;98239.09;108256;1287;22929;-84
2022/08/03 05:20:11;;;;;;;16.90;13.80;;;;;;;19.15;88.38;98239.42;108227;1288;23083;-84
2022/08/03 05:22:39;;;;;;;12.90;11.70;;;;;;;19.24;89.21;98237.26;108129;1288;22304;-84
2022/08/03 05:25:07;;;;;;;16.70;14.30;;;;;;;19.55;88.64;98234.63;108212;1286;22357;-84
2022/08/03 05:27:35;;;;;;;16.70;14.90;;;;;;;19.93;88.62;98238.20;108234;1288;22421;-84
2022/08/03 05:30:04;;;;;;;15.70;14.30;;;;;;;19.98;87.49;98237.54;108235;1287;22256;-84
2022/08/03 05:32:52;;;;;;;16.90;15.10;;;;;;;20.02;87.59;98235.46;108224;1286;22297;-84
2022/08/03 05:35:20;;;;;;;10.30;8.10;;;;;;;19.94;87.26;98233.45;108230;1287;22389;-84
2022/08/03 05:38:08;;;;;;;14.60;12.90;;;;;;;20.08;88.25;98237.48;108252;1287;22317;-83
2022/08/03 05:40:37;;;;;;;16.70;14.70;;;;;;;20.37;87.57;98239.35;108242;1287;22339;-84
2022/08/03 05:43:13;;;;;;;22.10;14.80;;;;;;;20.53;86.79;98234.91;108282;1287;22426;-84
2022/08/03 05:45:42;;;;;;;17.70;15.30;;;;;;;20.41;86.16;98234.90;108253;1288;22318;-84
2022/08/03 05:48:10;;;;;;;20.20;13.90;;;;;;;20.34;86.36;98239.30;108124;1290;22300;-83
2022/08/03 05:50:38;;;;;;;17.50;14.40;;;;;;;20.30;86.59;98244.25;108121;1289;22298;-84
2022/08/03 05:53:09;;;;;;;13.30;12.00;;;;;;;20.35;86.67;98238.36;108111;1289;22311;-84
2022/08/03 05:55:37;;;;;;;19.50;17.50;;;;;;;20.49;86.89;98237.84;108105;1289;23139;-84
2022/08/03 05:58:05;;;;;;;18.60;16.70;;;;;;;20.53;85.87;98233.86;108108;1289;22266;-83
2022/08/03 06:00:33;;;;;;;9.50;7.90;;;;;;;20.48;85.70;98235.20;108087;1289;22430;-84
2022/08/03 06:03:01;;;;;;;15.10;13.70;;;;;;;20.49;86.24;98233.67;108105;1289;22918;-83
2022/08/03 06:05:30;;;;;;;20.90;19.00;;;;;;;20.63;86.20;98235.76;108087;1290;22456;-83
2022/08/03 06:07:58;;;;;;;16.10;13.40;;;;;;;20.72;85.06;98236.88;108113;1289;23076;-84
2022/08/03 06:10:26;;;;;;;17.70;14.70;;;;;;;20.74;85.21;98238.96;108094;1289;22461;-84
2022/08/03 06:13:04;;;;;;;14.10;12.20;;;;;;;20.74;84.50;98241.71;108072;1289;22457;-83
2022/08/03 06:15:34;;;;;;;14.30;12.90;;;;;;;20.86;84.82;98246.44;108106;1289;23009;-83
2022/08/03 06:18:02;;;;;;;15.40;13.90;;;;;;;21.04;84.49;98244.77;108110;1289;22394;-83
2022/08/03 06:20:30;;;;;;;18.40;16.50;;;;;;;21.23;84.32;98243.83;108003;1289;22313;-83
2022/08/03 06:22:59;;;;;;;16.60;15.00;;;;;;;21.22;82.94;98245.16;108094;1289;22277;-83
2022/08/03 06:25:28;;;;;;;16.10;14.50;;;;;;;21.13;83.07;98245.05;108095;1289;22316;-84
2022/08/03 06:27:58;;;;;;;17.40;15.40;;;;;;;21.20;83.87;98245.80;108120;1289;22338;-84
2022/08/03 06:30:26;;;;;;;18.60;14.50;;;;;;;21.35;83.44;98244.95;108077;1289;22549;-84
2022/08/03 06:32:54;;;;;;;17.10;15.30;;;;;;;21.54;83.36;98240.86;108113;1289;22251;-83
2022/08/03 06:35:22;;;;;;;12.90;11.40;;;;;;;21.75;81.97;98245.95;108077;1289;23267;-83
2022/08/03 06:37:51;;;;;;;17.10;14.60;;;;;;;22.08;81.35;98242.87;108130;1290;22503;-84
2022/08/03 06:40:30;;;;;;;17.70;16.00;;;;;;;22.25;80.90;98245.59;108111;1289;22210;-85
2022/08/03 06:43:01;;;;;;;16.40;14.70;;;;;;;22.10;80.37;98249.33;107656;1290;22684;-83
2022/08/03 06:45:30;;;;;;;16.10;14.40;;;;;;;21.97;80.57;98249.40;108089;1290;22574;-83
2022/08/03 06:48:10;;;;;;;16.40;14.70;;;;;;;21.89;80.29;98246.77;108021;1288;22467;-84
2022/08/03 06:50:40;;;;;;;15.40;14.00;;;;;;;21.88;80.62;98246.95;108253;1287;22472;-84
2022/08/03 06:53:09;;;;;;;16.80;15.20;;;;;;;21.94;80.83;98247.40;108024;1287;22506;-83
2022/08/03 06:55:47;;;;;;;18.70;15.80;;;;;;;22.04;80.74;98245.36;108216;1286;22526;-84
2022/08/03 06:58:21;;;;;;;15.20;13.70;;;;;;;22.13;80.84;98248.26;108034;1287;22573;-87
2022/08/03 07:00:51;;;;;;;16.40;14.60;;;;;;;22.26;80.58;98249.14;108246;1288;22549;-86
2022/08/03 07:03:19;;;;;;;16.30;14.60;;;;;;;22.32;79.83;98248.75;108043;1288;22528;-83
2022/08/03 07:05:49;;;;;;;15.60;14.10;;;;;;;22.30;79.86;98251.77;108056;1288;22530;-84
2022/08/03 07:08:18;;;;;;;15.20;13.80;;;;;;;22.26;79.90;98249.45;108250;1287;23150;-84
2022/08/03 07:11:00;;;;;;;16.00;14.40;;;;;;;22.17;79.46;98251.73;108256;1288;22486;-85
2022/08/03 07:13:28;;;;;;;15.00;13.40;;;;;;;22.15;78.77;98248.48;108034;1288;23381;-83
2022/08/03 07:15:56;;;;;;;19.50;14.60;;;;;;;22.17;79.33;98252.60;108255;1288;22446;-84
2022/08/03 07:18:24;;;;;;;13.40;11.90;;;;;;;22.26;78.93;98251.73;108157;1288;22474;-83
2022/08/03 07:20:57;;;;;;;17.20;13.30;;;;;;;22.35;78.71;98251.55;108250;1287;22426;-83
2022/08/03 07:23:25;;;;;;;17.90;14.80;;;;;;;22.47;78.48;98247.89;108240;1287;23274;-82
2022/08/03 07:25:53;;;;;;;19.20;14.70;;;;;;;22.50;77.93;98247.86;108270;1287;22406;-84
2022/08/03 07:28:21;;;;;;;15.00;13.70;;;;;;;22.49;78.37;98245.58;108343;1287;22282;-83
2022/08/03 07:30:49;;;;;;;13.00;11.70;;;;;;;22.63;77.75;98252.52;108357;1286;22996;-87
2022/08/03 07:33:17;;;;;;;16.10;13.20;;;;;;;22.62;77.28;98249.45;108404;1287;22458;-90
2022/08/03 07:35:45;;;;;;;16.80;15.20;;;;;;;22.67;77.64;98250.16;108336;1286;22271;-88
2022/08/03 07:38:13;;;;;;;22.20;16.70;;;;;;;22.82;77.62;98245.81;108274;1287;22360;-90
2022/08/03 07:40:41;;;;;;;17.00;15.50;;;;;;;22.99;77.13;98250.15;108280;1286;23188;-89
2022/08/03 07:43:13;;;;;;;19.50;17.80;;;;;;;23.09;76.08;98248.71;108293;1287;22416;-90
2022/08/03 07:45:41;;;;;;;21.70;16.20;;;;;;;23.17;75.07;98250.70;108326;1287;22425;-89
2022/08/03 07:48:09;;;;;;;17.90;16.20;;;;;;;23.19;74.11;98250.95;108088;1289;22279;-88
2022/08/03 07:50:39;;;;;;;20.10;18.10;;;;;;;23.14;75.19;98252.86;108108;1289;22420;-88
2022/08/03 07:53:07;;;;;;;19.20;14.90;;;;;;;23.12;74.58;98259.29;108078;1289;22373;-89
2022/08/03 07:55:35;;;;;;;17.10;15.30;;;;;;;23.08;74.85;98255.86;108086;1289;22344;-89
2022/08/03 07:58:11;;;;;;;14.30;13.00;;;;;;;23.08;75.29;98254.59;108070;1289;22341;-89
2022/08/03 08:00:39;;;;;;;15.40;13.90;;;;;;;23.13;75.35;98254.11;108095;1289;22953;-88
2022/08/03 08:03:07;;;;;;;15.40;13.30;;;;;;;23.22;75.22;98255.63;108105;1289;22306;-89
2022/08/03 08:05:36;;;;;;;14.50;13.10;;;;;;;23.27;74.01;98256.33;108103;1289;22395;-89
2022/08/03 08:08:04;;;;;;;16.00;14.30;;;;;;;23.18;72.63;98258.10;108008;1290;22385;-89
2022/08/03 08:10:33;;;;;;;14.80;13.40;;;;;;;22.99;72.38;98258.23;108057;1289;23168;-90
2022/08/03 08:13:03;;;;;;;13.90;12.80;;;;;;;22.89;73.53;98257.30;107888;1290;22532;-90
2022/08/03 08:15:31;;;;;;;14.60;13.20;;;;;;;23.02;74.13;98255.84;107900;1289;22370;-89
2022/08/03 08:18:01;;;;;;;13.60;10.60;;;;;;;23.16;73.49;98254.69;108146;1289;22423;-88
2022/08/03 08:20:36;;;;;;;14.70;11.00;;;;;;;23.26;73.07;98256.62;108184;1289;23127;-86
2022/08/03 08:23:07;;;;;;;12.70;11.40;;;;;;;23.40;73.26;98252.77;108121;1289;23043;-88
2022/08/03 08:25:55;;;;;;;12.90;11.60;;;;;;;23.68;73.62;98253.73;108083;1289;23604;-89
2022/08/03 08:28:23;;;;;;;14.50;11.40;;;;;;;23.95;72.65;98254.03;108099;1289;22499;-90
2022/08/03 08:31:00;;;;;;;13.50;11.70;;;;;;;24.01;72.92;98249.91;108100;1288;22466;-90
2022/08/03 08:33:29;;;;;;;12.60;10.90;;;;;;;24.09;72.50;98250.61;108123;1290;23132;-88
2022/08/03 08:36:17;;;;;;;13.80;12.40;;;;;;;24.24;72.80;98243.65;108097;1289;22478;-90
2022/08/03 08:38:45;;;;;;;12.10;10.80;;;;;;;24.42;72.28;98250.02;108087;1289;22244;-89
2022/08/03 08:41:14;;;;;;;13.60;12.20;;;;;;;24.48;71.40;98251.34;108073;1290;22438;-89
2022/08/03 08:43:42;;;;;;;14.50;11.40;;;;;;;24.36;70.03;98251.45;108061;1289;23211;-89
2022/08/03 08:46:12;;;;;;;13.00;11.70;;;;;;;24.20;69.13;98253.54;107903;1288;22522;-88
2022/08/03 08:48:52;;;;;;;12.80;10.80;;;;;;;24.08;70.02;98250.52;108062;1288;22558;-88
2022/08/03 08:51:21;;;;;;;11.50;10.40;;;;;;;24.13;67.63;98250.63;108278;1288;22401;-87
2022/08/03 08:53:52;;;;;;;11.60;10.60;;;;;;;24.13;66.97;98253.48;108257;1288;22460;-87
2022/08/03 08:56:24;;;;;;;10.60;9.60;;;;;;;24.20;67.34;98256.20;108262;1288;22416;-87
2022/08/03 08:58:57;;;;;;;10.10;9.20;;;;;;;24.45;67.73;98252.40;108276;1287;22411;-87
2022/08/03 09:01:26;;;;;;;13.50;9.10;;;;;;;24.70;65.01;98254.72;108017;1288;23227;-86
2022/08/03 09:03:54;;;;;;;12.20;9.90;;;;;;;24.88;66.37;98252.94;108270;1287;22288;-88
2022/08/03 09:06:22;;;;;;;12.10;10.40;;;;;;;25.06;66.23;98250.43;108242;1287;22399;-88
2022/08/03 09:08:50;;;;;;;10.90;9.30;;;;;;;25.18;66.36;98251.92;108264;1287;22476;-86
2022/08/03 09:11:22;;;;;;;10.80;9.70;;;;;;;25.21;64.14;98253.14;108285;1288;22309;-85
2022/08/03 09:14:10;;;;;;;9.60;8.50;;;;;;;25.27;64.94;98253.09;108062;1288;22549;-87
2022/08/03 09:17:03;;;;;;;10.60;8.90;;;;;;;25.45;65.28;98257.16;108264;1287;22987;-87
2022/08/03 09:19:33;;;;;;;12.60;9.70;;;;;;;25.60;65.16;98254.20;108254;1288;22319;-88
2022/08/03 09:22:13;;;;;;;10.60;8.40;;;;;;;25.59;63.96;98252.32;108279;1287;23196;-88
2022/08/03 09:24:59;;;;;;;11.20;8.60;;;;;;;25.37;62.95;98255.40;108123;1288;23261;-87
2022/08/03 09:27:47;;;;;;;9.60;8.60;;;;;;;25.12;64.05;98253.06;108089;1288;22295;-88
2022/08/03 09:30:17;;;;;;;10.40;9.40;;;;;;;25.01;63.49;98249.77;108270;1288;22302;-86
2022/08/03 09:33:04;;;;;;;14.80;9.40;;;;;;;24.95;64.72;98253.13;108063;1288;22311;-89
2022/08/03 09:35:32;;;;;;;13.50;9.50;;;;;;;25.00;64.46;98253.40;108301;1287;22347;-88
2022/08/03 09:38:23;;;;;;;11.00;8.90;;;;;;;24.97;63.95;98254.02;108270;1286;22419;-86
2022/08/03 09:40:51;;;;;;;13.80;9.60;;;;;;;24.96;63.91;98253.52;108257;1287;22275;-88
2022/08/03 09:43:45;;;;;;;10.30;9.30;;;;;;;25.17;64.32;98251.67;108271;1288;23146;-85
2022/08/03 09:46:17;;;;;;;9.30;8.20;;;;;;;25.59;63.28;98250.81;108240;1288;22420;-85
2022/08/03 09:48:45;;;;;;;9.80;8.80;;;;;;;25.88;62.61;98249.32;107911;1290;23167;-85
2022/08/03 09:51:17;;;;;;;11.20;8.90;;;;;;;26.03;62.33;98247.77;107990;1290;22570;-86
2022/08/03 09:54:05;;;;;;;10.60;8.70;;;;;;;25.99;61.11;98249.43;108078;1290;23256;-85
2022/08/03 09:56:46;;;;;;;10.50;8.50;;;;;;;25.84;60.28;98246.88;107927;1289;22358;-85
2022/08/03 09:59:26;;;;;;;9.50;8.60;;;;;;;25.86;60.14;98246.65;107916;1290;22306;-86
2022/08/03 10:01:55;;;;;;;8.50;7.70;;;;;;;25.91;59.11;98244.68;108096;1290;22472;-86
2022/08/03 10:04:24;;;;;;;10.50;8.80;;;;;;;26.07;59.22;98243.29;108013;1290;22492;-86
2022/08/03 10:07:08;;;;;;;19.70;13.80;;;;;;;26.20;58.04;98245.66;108080;1289;22541;-86
2022/08/03 10:09:36;;;;;;;11.10;9.40;;;;;;;26.30;57.46;98244.55;107913;1290;22300;-87
2022/08/03 10:12:12;;;;;;;9.60;8.10;;;;;;;26.29;57.28;98242.02;108212;1288;22554;-86
2022/08/03 10:14:44;;;;;;;9.40;7.50;;;;;;;26.20;57.43;98237.21;108258;1287;23123;-86
2022/08/03 10:17:12;;;;;;;9.30;7.90;;;;;;;26.19;55.98;98235.78;108274;1288;22469;-86
2022/08/03 10:19:40;;;;;;;9.00;7.80;;;;;;;26.07;57.60;98234.99;108238;1288;22456;-86
2022/08/03 10:22:21;;;;;;;9.20;8.30;;;;;;;25.99;57.43;98234.75;108267;1287;22404;-85
2022/08/03 10:24:58;;;;;;;10.00;7.40;;;;;;;26.20;57.78;98238.48;108034;1288;22577;-87
2022/08/03 10:27:31;;;;;;;9.50;8.10;;;;;;;26.51;58.38;98239.02;108285;1287;23095;-87
2022/08/03 10:30:03;;;;;;;13.80;11.10;;;;;;;26.95;56.47;98233.89;108259;1288;22328;-87
2022/08/03 10:32:41;;;;;;;14.10;10.10;;;;;;;27.14;55.41;98237.87;108063;1288;22380;-86
2022/08/03 10:35:22;;;;;;;9.80;8.80;;;;;;;27.25;54.73;98240.13;108097;1288;23151;-86
2022/08/03 10:38:21;;;;;;;9.10;7.80;;;;;;;27.40;55.29;98238.17;108015;1290;22478;-87
2022/08/03 10:40:53;;;;;;;9.30;7.30;;;;;;;27.61;54.76;98231.65;107980;1290;22431;-87
2022/08/03 10:43:47;;;;;;;11.90;8.40;;;;;;;27.73;53.10;98231.41;107721;1290;22464;-87
2022/08/03 10:46:19;;;;;;;8.80;7.10;;;;;;;27.76;53.39;98235.20;108003;1290;22447;-86
2022/08/03 10:48:50;;;;;;;8.30;6.70;;;;;;;27.92;53.89;98233.30;108051;1289;22288;-86
2022/08/03 10:51:19;;;;;;;8.80;6.50;;;;;;;28.04;52.19;98229.97;108072;1289;22968;-87
2022/08/03 10:53:48;;;;;;;9.00;6.40;;;;;;;27.81;51.96;98223.31;108120;1289;23142;-86
2022/08/03 10:59:45;;;;;;;7.00;6.30;;;;;;;27.53;50.56;98228.37;108094;1289;22394;-86
2022/08/03 11:02:14;;;;;;;9.40;6.80;;;;;;;27.57;51.56;98222.89;108055;1290;22416;-86
2022/08/03 11:04:44;;;;;;;11.50;6.70;;;;;;;27.70;51.00;98218.38;108060;1289;22516;-87
2022/08/03 11:07:34;;;;;;;7.10;6.40;;;;;;;27.66;49.63;98219.52;108090;1289;23050;-86
2022/08/03 11:10:03;;;;;;;8.20;6.10;;;;;;;27.49;50.84;98227.67;107583;1293;22341;-86
2022/08/03 11:12:37;;;;;;;7.20;6.20;;;;;;;27.47;51.15;98226.91;107630;1293;22458;-86
2022/08/03 11:15:07;;;;;;;8.00;5.80;;;;;;;27.56;50.85;98220.45;107510;1293;22276;-85
2022/08/03 11:17:37;;;;;;;6.70;5.40;;;;;;;27.84;51.23;98211.83;107616;1292;22614;-85
2022/08/03 11:20:56;;;;;;;7.40;6.20;;;;;;;28.23;50.89;98211.05;107572;1293;22453;-86
2022/08/03 11:23:40;;;;;;;7.60;5.80;;;;;;;28.51;49.31;98210.83;107464;1293;23007;-85
2022/08/03 11:26:28;;;;;;;8.60;5.50;;;;;;;28.63;48.82;98209.27;107581;1292;22454;-87
2022/08/03 11:29:27;;;;;;;8.20;5.40;;;;;;;28.84;48.27;98200.02;107884;1290;22502;-86
2022/08/03 11:31:55;;;;;;;6.80;5.70;;;;;;;28.93;45.71;98195.95;107950;1290;22487;-85
2022/08/03 11:34:23;;;;;;;7.20;5.90;;;;;;;28.67;45.98;98199.96;108021;1290;23107;-86
2022/08/03 11:37:21;;;;;;;6.90;5.60;;;;;;;28.43;46.79;98195.61;107879;1290;23297;-87
2022/08/03 11:39:53;;;;;;;11.50;5.30;;;;;;;28.46;46.46;98198.21;107805;1290;22340;-85
2022/08/03 11:42:21;;;;;;;5.90;5.20;;;;;;;28.67;47.03;98194.66;108284;1287;22561;-86
2022/08/03 11:44:51;;;;;;;5.60;5.00;;;;;;;28.89;45.65;98196.71;108351;1287;22475;-83
2022/08/03 11:47:20;;;;;;;6.00;4.40;;;;;;;29.08;46.13;98195.87;108337;1287;22551;-83
2022/08/03 11:49:50;;;;;;;4.70;4.30;;;;;;;29.28;45.49;98189.83;108322;1286;22389;-85